sensor_id;sensor_type;location;lat;lon;timestamp;pressure;altitude;pressure_sealevel;temperature
45850;BMP180;10739;52.198;20.908;2022-10-26T00:01:14;100454.00;;;15.50
45850;BMP180;10739;52.198;20.908;2022-10-26T00:03:43;100461.00;;;15.50
45850;BMP180;10739;52.198;20.908;2022-10-26T00:06:15;100452.00;;;15.60
45850;BMP180;10739;52.198;20.908;2022-10-26T00:08:43;100464.00;;;15.40
45850;BMP180;10739;52.198;20.908;2022-10-26T00:11:11;100464.00;;;14.90
45850;BMP180;10739;52.198;20.908;2022-10-26T00:13:38;100457.00;;;15.00
45850;BMP180;10739;52.198;20.908;2022-10-26T00:16:24;100467.00;;;15.50
45850;BMP180;10739;52.198;20.908;2022-10-26T00:18:51;100472.00;;;15.40
45850;BMP180;10739;52.198;20.908;2022-10-26T00:21:17;100466.00;;;15.40
45850;BMP180;10739;52.198;20.908;2022-10-26T00:23:44;100473.00;;;15.80
45850;BMP180;10739;52.198;20.908;2022-10-26T00:26:11;100479.00;;;15.70
45850;BMP180;10739;52.198;20.908;2022-10-26T00:28:37;100473.00;;;15.30
45850;BMP180;10739;52.198;20.908;2022-10-26T00:31:12;100472.00;;;15.50
45850;BMP180;10739;52.198;20.908;2022-10-26T00:33:38;100476.00;;;15.40
45850;BMP180;10739;52.198;20.908;2022-10-26T00:36:05;100470.00;;;15.40
45850;BMP180;10739;52.198;20.908;2022-10-26T00:38:31;100476.00;;;15.60
45850;BMP180;10739;52.198;20.908;2022-10-26T00:40:57;100474.00;;;15.40
45850;BMP180;10739;52.198;20.908;2022-10-26T00:45:51;100480.00;;;15.10
45850;BMP180;10739;52.198;20.908;2022-10-26T00:48:25;100474.00;;;15.40
45850;BMP180;10739;52.198;20.908;2022-10-26T00:50:55;100473.00;;;15.40
45850;BMP180;10739;52.198;20.908;2022-10-26T00:53:23;100470.00;;;15.20
45850;BMP180;10739;52.198;20.908;2022-10-26T00:55:52;100463.00;;;15.20
45850;BMP180;10739;52.198;20.908;2022-10-26T00:58:20;100468.00;;;14.80
45850;BMP180;10739;52.198;20.908;2022-10-26T01:00:48;100473.00;;;15.40
45850;BMP180;10739;52.198;20.908;2022-10-26T01:03:15;100462.00;;;15.20
45850;BMP180;10739;52.198;20.908;2022-10-26T01:05:45;100467.00;;;15.10
45850;BMP180;10739;52.198;20.908;2022-10-26T01:08:14;100472.00;;;15.30
45850;BMP180;10739;52.198;20.908;2022-10-26T01:10:42;100471.00;;;15.50
45850;BMP180;10739;52.198;20.908;2022-10-26T01:13:09;100477.00;;;15.60
45850;BMP180;10739;52.198;20.908;2022-10-26T01:18:49;100472.00;;;15.40
45850;BMP180;10739;52.198;20.908;2022-10-26T01:25:00;100476.00;;;15.50
45850;BMP180;10739;52.198;20.908;2022-10-26T01:27:46;100472.00;;;15.30
45850;BMP180;10739;52.198;20.908;2022-10-26T01:30:38;100476.00;;;15.30
45850;BMP180;10739;52.198;20.908;2022-10-26T01:36:10;100480.00;;;16.00
45850;BMP180;10739;52.198;20.908;2022-10-26T01:41:38;100481.00;;;15.70
45850;BMP180;10739;52.198;20.908;2022-10-26T01:44:22;100483.00;;;15.60
45850;BMP180;10739;52.198;20.908;2022-10-26T01:46:53;100480.00;;;15.80
45850;BMP180;10739;52.198;20.908;2022-10-26T01:49:29;100477.00;;;15.30
45850;BMP180;10739;52.198;20.908;2022-10-26T01:51:56;100477.00;;;15.90
45850;BMP180;10739;52.198;20.908;2022-10-26T01:54:22;100483.00;;;15.40
45850;BMP180;10739;52.198;20.908;2022-10-26T01:56:52;100483.00;;;15.00
45850;BMP180;10739;52.198;20.908;2022-10-26T02:11:11;100498.00;;;15.50
45850;BMP180;10739;52.198;20.908;2022-10-26T02:13:54;100495.00;;;15.20
45850;BMP180;10739;52.198;20.908;2022-10-26T02:22:39;100501.00;;;15.40
45850;BMP180;10739;52.198;20.908;2022-10-26T02:25:16;100510.00;;;14.60
45850;BMP180;10739;52.198;20.908;2022-10-26T02:27:53;100490.00;;;14.80
45850;BMP180;10739;52.198;20.908;2022-10-26T02:30:21;100503.00;;;14.70
45850;BMP180;10739;52.198;20.908;2022-10-26T02:32:51;100505.00;;;14.50
45850;BMP180;10739;52.198;20.908;2022-10-26T02:35:33;100502.00;;;14.80
45850;BMP180;10739;52.198;20.908;2022-10-26T02:38:06;100502.00;;;14.60
45850;BMP180;10739;52.198;20.908;2022-10-26T02:40:35;100501.00;;;14.40
45850;BMP180;10739;52.198;20.908;2022-10-26T02:43:07;100500.00;;;14.50
45850;BMP180;10739;52.198;20.908;2022-10-26T02:45:56;100506.00;;;15.00
45850;BMP180;10739;52.198;20.908;2022-10-26T02:48:24;100509.00;;;14.40
45850;BMP180;10739;52.198;20.908;2022-10-26T02:51:18;100509.00;;;14.60
45850;BMP180;10739;52.198;20.908;2022-10-26T02:53:57;100516.00;;;14.90
45850;BMP180;10739;52.198;20.908;2022-10-26T02:56:47;100520.00;;;15.10
45850;BMP180;10739;52.198;20.908;2022-10-26T02:59:21;100518.00;;;14.40
45850;BMP180;10739;52.198;20.908;2022-10-26T03:01:50;100523.00;;;14.70
45850;BMP180;10739;52.198;20.908;2022-10-26T03:04:17;100528.00;;;14.70
45850;BMP180;10739;52.198;20.908;2022-10-26T03:06:54;100518.00;;;14.80
45850;BMP180;10739;52.198;20.908;2022-10-26T03:09:21;100534.00;;;14.90
45850;BMP180;10739;52.198;20.908;2022-10-26T03:11:47;100537.00;;;15.00
45850;BMP180;10739;52.198;20.908;2022-10-26T03:14:13;100544.00;;;14.60
45850;BMP180;10739;52.198;20.908;2022-10-26T03:16:39;100539.00;;;14.90
45850;BMP180;10739;52.198;20.908;2022-10-26T03:19:05;100537.00;;;14.70
45850;BMP180;10739;52.198;20.908;2022-10-26T03:21:31;100538.00;;;15.30
45850;BMP180;10739;52.198;20.908;2022-10-26T03:23:58;100538.00;;;15.20
45850;BMP180;10739;52.198;20.908;2022-10-26T03:26:24;100546.00;;;14.70
45850;BMP180;10739;52.198;20.908;2022-10-26T03:28:51;100540.00;;;14.10
45850;BMP180;10739;52.198;20.908;2022-10-26T03:31:17;100550.00;;;14.20
45850;BMP180;10739;52.198;20.908;2022-10-26T03:33:43;100542.00;;;14.20
45850;BMP180;10739;52.198;20.908;2022-10-26T03:36:09;100544.00;;;14.30
45850;BMP180;10739;52.198;20.908;2022-10-26T03:38:35;100555.00;;;14.70
45850;BMP180;10739;52.198;20.908;2022-10-26T03:41:02;100549.00;;;14.80
45850;BMP180;10739;52.198;20.908;2022-10-26T03:43:28;100550.00;;;14.70
45850;BMP180;10739;52.198;20.908;2022-10-26T03:45:54;100554.00;;;14.70
45850;BMP180;10739;52.198;20.908;2022-10-26T03:48:20;100551.00;;;15.20
45850;BMP180;10739;52.198;20.908;2022-10-26T03:50:46;100563.00;;;14.80
45850;BMP180;10739;52.198;20.908;2022-10-26T03:53:13;100566.00;;;14.30
45850;BMP180;10739;52.198;20.908;2022-10-26T03:55:42;100564.00;;;14.60
45850;BMP180;10739;52.198;20.908;2022-10-26T03:58:08;100562.00;;;14.40
45850;BMP180;10739;52.198;20.908;2022-10-26T04:00:34;100560.00;;;14.60
45850;BMP180;10739;52.198;20.908;2022-10-26T04:03:00;100553.00;;;14.30
45850;BMP180;10739;52.198;20.908;2022-10-26T04:05:28;100553.00;;;14.60
45850;BMP180;10739;52.198;20.908;2022-10-26T04:08:00;100561.00;;;14.60
45850;BMP180;10739;52.198;20.908;2022-10-26T04:10:30;100561.00;;;14.60
45850;BMP180;10739;52.198;20.908;2022-10-26T04:12:57;100558.00;;;14.60
45850;BMP180;10739;52.198;20.908;2022-10-26T04:15:28;100565.00;;;14.50
45850;BMP180;10739;52.198;20.908;2022-10-26T04:17:59;100561.00;;;14.40
45850;BMP180;10739;52.198;20.908;2022-10-26T04:20:28;100575.00;;;14.50
45850;BMP180;10739;52.198;20.908;2022-10-26T04:23:00;100569.00;;;14.70
45850;BMP180;10739;52.198;20.908;2022-10-26T04:25:28;100577.00;;;15.40
45850;BMP180;10739;52.198;20.908;2022-10-26T04:27:54;100571.00;;;15.20
45850;BMP180;10739;52.198;20.908;2022-10-26T04:30:21;100574.00;;;15.30
45850;BMP180;10739;52.198;20.908;2022-10-26T04:32:48;100568.00;;;15.50
45850;BMP180;10739;52.198;20.908;2022-10-26T04:35:14;100582.00;;;14.60
45850;BMP180;10739;52.198;20.908;2022-10-26T04:37:40;100579.00;;;14.60
45850;BMP180;10739;52.198;20.908;2022-10-26T04:40:07;100577.00;;;14.30
45850;BMP180;10739;52.198;20.908;2022-10-26T04:42:45;100580.00;;;14.40
45850;BMP180;10739;52.198;20.908;2022-10-26T04:45:14;100580.00;;;14.40
45850;BMP180;10739;52.198;20.908;2022-10-26T04:47:41;100587.00;;;14.50
45850;BMP180;10739;52.198;20.908;2022-10-26T04:50:09;100580.00;;;14.50
45850;BMP180;10739;52.198;20.908;2022-10-26T04:52:36;100588.00;;;14.60
45850;BMP180;10739;52.198;20.908;2022-10-26T04:55:03;100586.00;;;14.30
45850;BMP180;10739;52.198;20.908;2022-10-26T04:57:34;100588.00;;;14.70
45850;BMP180;10739;52.198;20.908;2022-10-26T05:00:03;100582.00;;;14.90
45850;BMP180;10739;52.198;20.908;2022-10-26T05:02:29;100591.00;;;14.50
45850;BMP180;10739;52.198;20.908;2022-10-26T05:04:55;100589.00;;;14.50
45850;BMP180;10739;52.198;20.908;2022-10-26T05:07:21;100599.00;;;14.40
45850;BMP180;10739;52.198;20.908;2022-10-26T05:09:48;100594.00;;;14.50
45850;BMP180;10739;52.198;20.908;2022-10-26T05:12:17;100608.00;;;14.70
45850;BMP180;10739;52.198;20.908;2022-10-26T05:14:44;100612.00;;;14.40
45850;BMP180;10739;52.198;20.908;2022-10-26T05:17:10;100614.00;;;14.80
45850;BMP180;10739;52.198;20.908;2022-10-26T05:19:36;100616.00;;;14.90
45850;BMP180;10739;52.198;20.908;2022-10-26T05:22:03;100615.00;;;14.50
45850;BMP180;10739;52.198;20.908;2022-10-26T05:24:30;100617.00;;;14.50
45850;BMP180;10739;52.198;20.908;2022-10-26T05:26:56;100614.00;;;14.20
45850;BMP180;10739;52.198;20.908;2022-10-26T05:29:26;100627.00;;;14.00
45850;BMP180;10739;52.198;20.908;2022-10-26T05:31:52;100628.00;;;14.10
45850;BMP180;10739;52.198;20.908;2022-10-26T05:34:18;100625.00;;;14.40
45850;BMP180;10739;52.198;20.908;2022-10-26T05:36:44;100629.00;;;14.40
45850;BMP180;10739;52.198;20.908;2022-10-26T05:39:10;100642.00;;;14.20
45850;BMP180;10739;52.198;20.908;2022-10-26T05:41:36;100631.00;;;14.60
45850;BMP180;10739;52.198;20.908;2022-10-26T05:44:02;100640.00;;;14.80
45850;BMP180;10739;52.198;20.908;2022-10-26T05:46:29;100641.00;;;14.90
45850;BMP180;10739;52.198;20.908;2022-10-26T05:48:55;100645.00;;;15.00
45850;BMP180;10739;52.198;20.908;2022-10-26T05:51:21;100642.00;;;15.00
45850;BMP180;10739;52.198;20.908;2022-10-26T05:53:47;100641.00;;;15.10
45850;BMP180;10739;52.198;20.908;2022-10-26T05:56:20;100648.00;;;15.00
45850;BMP180;10739;52.198;20.908;2022-10-26T05:58:50;100647.00;;;15.20
45850;BMP180;10739;52.198;20.908;2022-10-26T06:01:37;100654.00;;;15.00
45850;BMP180;10739;52.198;20.908;2022-10-26T06:07:23;100656.00;;;15.00
45850;BMP180;10739;52.198;20.908;2022-10-26T06:09:49;100655.00;;;15.20
45850;BMP180;10739;52.198;20.908;2022-10-26T06:12:16;100656.00;;;15.40
45850;BMP180;10739;52.198;20.908;2022-10-26T06:14:43;100656.00;;;15.20
45850;BMP180;10739;52.198;20.908;2022-10-26T06:17:43;100661.00;;;15.40
45850;BMP180;10739;52.198;20.908;2022-10-26T06:22:59;100664.00;;;14.90
45850;BMP180;10739;52.198;20.908;2022-10-26T06:25:56;100664.00;;;15.40
45850;BMP180;10739;52.198;20.908;2022-10-26T06:28:44;100667.00;;;15.50
45850;BMP180;10739;52.198;20.908;2022-10-26T06:31:13;100677.00;;;15.40
45850;BMP180;10739;52.198;20.908;2022-10-26T06:33:40;100671.00;;;14.50
45850;BMP180;10739;52.198;20.908;2022-10-26T06:36:24;100677.00;;;14.80
45850;BMP180;10739;52.198;20.908;2022-10-26T06:39:06;100675.00;;;14.10
45850;BMP180;10739;52.198;20.908;2022-10-26T06:41:35;100677.00;;;14.70
45850;BMP180;10739;52.198;20.908;2022-10-26T06:44:03;100678.00;;;14.90
45850;BMP180;10739;52.198;20.908;2022-10-26T06:46:51;100682.00;;;15.30
45850;BMP180;10739;52.198;20.908;2022-10-26T06:49:31;100683.00;;;15.20
45850;BMP180;10739;52.198;20.908;2022-10-26T06:52:28;100694.00;;;14.70
45850;BMP180;10739;52.198;20.908;2022-10-26T06:54:57;100694.00;;;15.00
45850;BMP180;10739;52.198;20.908;2022-10-26T06:57:27;100689.00;;;14.70
45850;BMP180;10739;52.198;20.908;2022-10-26T07:00:22;100689.00;;;15.30
45850;BMP180;10739;52.198;20.908;2022-10-26T07:02:48;100696.00;;;15.30
45850;BMP180;10739;52.198;20.908;2022-10-26T07:05:15;100692.00;;;15.70
45850;BMP180;10739;52.198;20.908;2022-10-26T07:07:49;100680.00;;;15.40
45850;BMP180;10739;52.198;20.908;2022-10-26T07:10:16;100686.00;;;15.20
45850;BMP180;10739;52.198;20.908;2022-10-26T07:12:44;100705.00;;;15.00
45850;BMP180;10739;52.198;20.908;2022-10-26T07:15:10;100687.00;;;15.20
45850;BMP180;10739;52.198;20.908;2022-10-26T07:17:44;100700.00;;;14.80
45850;BMP180;10739;52.198;20.908;2022-10-26T07:20:13;100693.00;;;15.10
45850;BMP180;10739;52.198;20.908;2022-10-26T07:22:39;100705.00;;;15.70
45850;BMP180;10739;52.198;20.908;2022-10-26T07:25:08;100711.00;;;15.70
45850;BMP180;10739;52.198;20.908;2022-10-26T07:27:35;100706.00;;;15.60
45850;BMP180;10739;52.198;20.908;2022-10-26T07:30:01;100709.00;;;15.00
45850;BMP180;10739;52.198;20.908;2022-10-26T07:32:28;100705.00;;;14.50
45850;BMP180;10739;52.198;20.908;2022-10-26T07:34:55;100707.00;;;14.70
45850;BMP180;10739;52.198;20.908;2022-10-26T07:37:21;100710.00;;;14.50
45850;BMP180;10739;52.198;20.908;2022-10-26T07:39:47;100717.00;;;14.50
45850;BMP180;10739;52.198;20.908;2022-10-26T07:42:14;100710.00;;;14.90
45850;BMP180;10739;52.198;20.908;2022-10-26T07:44:41;100716.00;;;14.50
45850;BMP180;10739;52.198;20.908;2022-10-26T07:47:07;100712.00;;;14.30
45850;BMP180;10739;52.198;20.908;2022-10-26T07:49:33;100721.00;;;14.10
45850;BMP180;10739;52.198;20.908;2022-10-26T07:51:59;100719.00;;;13.90
45850;BMP180;10739;52.198;20.908;2022-10-26T07:54:26;100719.00;;;14.10
45850;BMP180;10739;52.198;20.908;2022-10-26T07:56:52;100717.00;;;14.10
45850;BMP180;10739;52.198;20.908;2022-10-26T07:59:18;100731.00;;;14.20
45850;BMP180;10739;52.198;20.908;2022-10-26T08:01:44;100726.00;;;14.90
45850;BMP180;10739;52.198;20.908;2022-10-26T08:04:11;100734.00;;;14.30
45850;BMP180;10739;52.198;20.908;2022-10-26T08:06:37;100730.00;;;14.00
45850;BMP180;10739;52.198;20.908;2022-10-26T08:09:04;100749.00;;;14.50
45850;BMP180;10739;52.198;20.908;2022-10-26T08:11:30;100727.00;;;14.80
45850;BMP180;10739;52.198;20.908;2022-10-26T08:13:56;100741.00;;;14.60
45850;BMP180;10739;52.198;20.908;2022-10-26T08:16:23;100747.00;;;14.50
45850;BMP180;10739;52.198;20.908;2022-10-26T08:18:50;100744.00;;;14.80
45850;BMP180;10739;52.198;20.908;2022-10-26T08:21:17;100742.00;;;14.80
45850;BMP180;10739;52.198;20.908;2022-10-26T08:23:43;100755.00;;;14.80
45850;BMP180;10739;52.198;20.908;2022-10-26T08:26:10;100748.00;;;14.60
45850;BMP180;10739;52.198;20.908;2022-10-26T08:28:38;100746.00;;;14.80
45850;BMP180;10739;52.198;20.908;2022-10-26T08:31:06;100749.00;;;14.70
45850;BMP180;10739;52.198;20.908;2022-10-26T08:33:32;100753.00;;;14.70
45850;BMP180;10739;52.198;20.908;2022-10-26T08:36:03;100750.00;;;14.50
45850;BMP180;10739;52.198;20.908;2022-10-26T08:38:30;100754.00;;;14.20
45850;BMP180;10739;52.198;20.908;2022-10-26T08:41:05;100747.00;;;14.10
45850;BMP180;10739;52.198;20.908;2022-10-26T08:43:40;100754.00;;;15.00
45850;BMP180;10739;52.198;20.908;2022-10-26T08:46:14;100756.00;;;14.50
45850;BMP180;10739;52.198;20.908;2022-10-26T08:48:48;100760.00;;;14.20
45850;BMP180;10739;52.198;20.908;2022-10-26T08:51:30;100759.00;;;14.30
45850;BMP180;10739;52.198;20.908;2022-10-26T08:54:37;100766.00;;;14.70
45850;BMP180;10739;52.198;20.908;2022-10-26T08:57:38;100767.00;;;14.30
45850;BMP180;10739;52.198;20.908;2022-10-26T09:00:19;100770.00;;;14.50
45850;BMP180;10739;52.198;20.908;2022-10-26T09:02:52;100773.00;;;14.70
45850;BMP180;10739;52.198;20.908;2022-10-26T09:08:49;100778.00;;;14.50
45850;BMP180;10739;52.198;20.908;2022-10-26T09:14:38;100777.00;;;14.90
45850;BMP180;10739;52.198;20.908;2022-10-26T09:18:01;100780.00;;;15.80
45850;BMP180;10739;52.198;20.908;2022-10-26T09:21:20;100786.00;;;15.70
45850;BMP180;10739;52.198;20.908;2022-10-26T09:26:26;100785.00;;;15.40
45850;BMP180;10739;52.198;20.908;2022-10-26T09:28:56;100786.00;;;14.90
45850;BMP180;10739;52.198;20.908;2022-10-26T09:31:24;100792.00;;;15.10
45850;BMP180;10739;52.198;20.908;2022-10-26T09:33:52;100800.00;;;14.80
45850;BMP180;10739;52.198;20.908;2022-10-26T09:36:21;100801.00;;;14.60
45850;BMP180;10739;52.198;20.908;2022-10-26T09:39:05;100800.00;;;15.20
45850;BMP180;10739;52.198;20.908;2022-10-26T09:41:49;100803.00;;;15.80
45850;BMP180;10739;52.198;20.908;2022-10-26T09:44:38;100809.00;;;15.20
45850;BMP180;10739;52.198;20.908;2022-10-26T09:47:34;100816.00;;;15.40
45850;BMP180;10739;52.198;20.908;2022-10-26T09:50:28;100808.00;;;15.20
45850;BMP180;10739;52.198;20.908;2022-10-26T09:52:55;100811.00;;;16.00
45850;BMP180;10739;52.198;20.908;2022-10-26T09:55:21;100810.00;;;16.20
45850;BMP180;10739;52.198;20.908;2022-10-26T09:57:53;100808.00;;;15.60
45850;BMP180;10739;52.198;20.908;2022-10-26T10:00:23;100824.00;;;15.40
45850;BMP180;10739;52.198;20.908;2022-10-26T10:02:55;100820.00;;;15.80
45850;BMP180;10739;52.198;20.908;2022-10-26T10:05:28;100821.00;;;16.10
45850;BMP180;10739;52.198;20.908;2022-10-26T10:11:06;100814.00;;;16.00
45850;BMP180;10739;52.198;20.908;2022-10-26T10:13:44;100820.00;;;15.60
45850;BMP180;10739;52.198;20.908;2022-10-26T10:16:19;100812.00;;;15.60
45850;BMP180;10739;52.198;20.908;2022-10-26T10:18:57;100817.00;;;16.50
45850;BMP180;10739;52.198;20.908;2022-10-26T10:21:47;100810.00;;;16.60
45850;BMP180;10739;52.198;20.908;2022-10-26T10:24:36;100809.00;;;16.70
45850;BMP180;10739;52.198;20.908;2022-10-26T10:29:49;100804.00;;;16.10
45850;BMP180;10739;52.198;20.908;2022-10-26T10:32:19;100807.00;;;16.00
45850;BMP180;10739;52.198;20.908;2022-10-26T10:34:51;100811.00;;;16.20
45850;BMP180;10739;52.198;20.908;2022-10-26T10:40:08;100810.00;;;16.60
45850;BMP180;10739;52.198;20.908;2022-10-26T10:42:42;100790.00;;;16.30
45850;BMP180;10739;52.198;20.908;2022-10-26T10:45:27;100801.00;;;16.10
45850;BMP180;10739;52.198;20.908;2022-10-26T10:48:20;100804.00;;;16.30
45850;BMP180;10739;52.198;20.908;2022-10-26T10:50:56;100797.00;;;16.30
45850;BMP180;10739;52.198;20.908;2022-10-26T10:53:53;100812.00;;;16.80
45850;BMP180;10739;52.198;20.908;2022-10-26T10:56:39;100804.00;;;16.00
45850;BMP180;10739;52.198;20.908;2022-10-26T10:59:29;100809.00;;;16.30
45850;BMP180;10739;52.198;20.908;2022-10-26T11:02:12;100815.00;;;15.90
45850;BMP180;10739;52.198;20.908;2022-10-26T11:05:21;100810.00;;;16.50
45850;BMP180;10739;52.198;20.908;2022-10-26T11:08:12;100814.00;;;16.00
45850;BMP180;10739;52.198;20.908;2022-10-26T11:11:20;100817.00;;;16.10
45850;BMP180;10739;52.198;20.908;2022-10-26T11:14:01;100813.00;;;16.50
45850;BMP180;10739;52.198;20.908;2022-10-26T11:16:55;100823.00;;;16.60
45850;BMP180;10739;52.198;20.908;2022-10-26T11:19:32;100814.00;;;16.30
45850;BMP180;10739;52.198;20.908;2022-10-26T11:22:04;100820.00;;;16.50
45850;BMP180;10739;52.198;20.908;2022-10-26T11:25:03;100824.00;;;16.30
45850;BMP180;10739;52.198;20.908;2022-10-26T11:27:42;100827.00;;;15.80
45850;BMP180;10739;52.198;20.908;2022-10-26T11:30:22;100815.00;;;16.00
45850;BMP180;10739;52.198;20.908;2022-10-26T11:33:12;100823.00;;;16.10
45850;BMP180;10739;52.198;20.908;2022-10-26T11:36:18;100835.00;;;16.10
45850;BMP180;10739;52.198;20.908;2022-10-26T11:38:52;100827.00;;;16.40
45850;BMP180;10739;52.198;20.908;2022-10-26T11:44:12;100825.00;;;16.90
45850;BMP180;10739;52.198;20.908;2022-10-26T11:47:21;100830.00;;;17.10
45850;BMP180;10739;52.198;20.908;2022-10-26T11:55:00;100830.00;;;16.50
45850;BMP180;10739;52.198;20.908;2022-10-26T11:57:35;100835.00;;;15.70
45850;BMP180;10739;52.198;20.908;2022-10-26T12:00:16;100832.00;;;16.10
45850;BMP180;10739;52.198;20.908;2022-10-26T12:02:51;100831.00;;;16.50
45850;BMP180;10739;52.198;20.908;2022-10-26T12:05:45;100836.00;;;16.30
45850;BMP180;10739;52.198;20.908;2022-10-26T12:08:27;100848.00;;;16.20
45850;BMP180;10739;52.198;20.908;2022-10-26T12:13:53;100833.00;;;16.50
45850;BMP180;10739;52.198;20.908;2022-10-26T12:17:03;100843.00;;;16.60
45850;BMP180;10739;52.198;20.908;2022-10-26T12:22:19;100844.00;;;16.50
45850;BMP180;10739;52.198;20.908;2022-10-26T12:38:01;100844.00;;;17.10
45850;BMP180;10739;52.198;20.908;2022-10-26T12:40:47;100849.00;;;16.80
45850;BMP180;10739;52.198;20.908;2022-10-26T12:45:45;100853.00;;;17.50
45850;BMP180;10739;52.198;20.908;2022-10-26T12:48:37;100850.00;;;18.00
45850;BMP180;10739;52.198;20.908;2022-10-26T12:57:00;100851.00;;;18.00
45850;BMP180;10739;52.198;20.908;2022-10-26T12:59:45;100834.00;;;18.00
45850;BMP180;10739;52.198;20.908;2022-10-26T13:05:48;100846.00;;;17.70
45850;BMP180;10739;52.198;20.908;2022-10-26T13:08:21;100844.00;;;17.60
45850;BMP180;10739;52.198;20.908;2022-10-26T13:11:11;100846.00;;;17.30
45850;BMP180;10739;52.198;20.908;2022-10-26T13:13:40;100849.00;;;17.50
45850;BMP180;10739;52.198;20.908;2022-10-26T13:16:11;100851.00;;;16.80
45850;BMP180;10739;52.198;20.908;2022-10-26T13:18:45;100849.00;;;17.30
45850;BMP180;10739;52.198;20.908;2022-10-26T13:21:18;100850.00;;;17.10
45850;BMP180;10739;52.198;20.908;2022-10-26T13:26:26;100846.00;;;17.20
45850;BMP180;10739;52.198;20.908;2022-10-26T13:28:59;100843.00;;;17.30
45850;BMP180;10739;52.198;20.908;2022-10-26T13:34:20;100850.00;;;17.60
45850;BMP180;10739;52.198;20.908;2022-10-26T13:39:36;100864.00;;;17.50
45850;BMP180;10739;52.198;20.908;2022-10-26T13:42:05;100853.00;;;17.20
45850;BMP180;10739;52.198;20.908;2022-10-26T13:44:38;100851.00;;;17.00
45850;BMP180;10739;52.198;20.908;2022-10-26T13:47:20;100857.00;;;17.60
45850;BMP180;10739;52.198;20.908;2022-10-26T13:49:51;100859.00;;;17.10
45850;BMP180;10739;52.198;20.908;2022-10-26T13:52:32;100856.00;;;16.70
45850;BMP180;10739;52.198;20.908;2022-10-26T13:55:23;100870.00;;;16.80
45850;BMP180;10739;52.198;20.908;2022-10-26T13:58:20;100862.00;;;17.30
45850;BMP180;10739;52.198;20.908;2022-10-26T14:01:14;100863.00;;;17.20
45850;BMP180;10739;52.198;20.908;2022-10-26T14:03:42;100856.00;;;17.30
45850;BMP180;10739;52.198;20.908;2022-10-26T14:08:40;100855.00;;;17.30
45850;BMP180;10739;52.198;20.908;2022-10-26T14:11:15;100860.00;;;17.40
45850;BMP180;10739;52.198;20.908;2022-10-26T14:13:42;100851.00;;;17.50
45850;BMP180;10739;52.198;20.908;2022-10-26T14:16:09;100849.00;;;17.40
45850;BMP180;10739;52.198;20.908;2022-10-26T14:18:36;100850.00;;;17.40
45850;BMP180;10739;52.198;20.908;2022-10-26T14:21:13;100850.00;;;17.20
45850;BMP180;10739;52.198;20.908;2022-10-26T14:23:59;100863.00;;;17.10
45850;BMP180;10739;52.198;20.908;2022-10-26T14:26:39;100873.00;;;17.00
45850;BMP180;10739;52.198;20.908;2022-10-26T14:29:22;100869.00;;;16.30
45850;BMP180;10739;52.198;20.908;2022-10-26T14:31:50;100870.00;;;17.20
45850;BMP180;10739;52.198;20.908;2022-10-26T14:34:18;100876.00;;;17.20
45850;BMP180;10739;52.198;20.908;2022-10-26T14:37:01;100885.00;;;17.50
45850;BMP180;10739;52.198;20.908;2022-10-26T14:39:43;100878.00;;;17.50
45850;BMP180;10739;52.198;20.908;2022-10-26T14:42:32;100872.00;;;17.70
45850;BMP180;10739;52.198;20.908;2022-10-26T14:45:00;100873.00;;;17.50
45850;BMP180;10739;52.198;20.908;2022-10-26T14:47:31;100877.00;;;17.00
45850;BMP180;10739;52.198;20.908;2022-10-26T14:49:59;100875.00;;;17.10
45850;BMP180;10739;52.198;20.908;2022-10-26T14:52:35;100875.00;;;17.20
45850;BMP180;10739;52.198;20.908;2022-10-26T14:57:38;100869.00;;;17.30
45850;BMP180;10739;52.198;20.908;2022-10-26T15:00:23;100879.00;;;16.70
45850;BMP180;10739;52.198;20.908;2022-10-26T15:02:54;100882.00;;;16.60
45850;BMP180;10739;52.198;20.908;2022-10-26T15:05:30;100881.00;;;16.50
45850;BMP180;10739;52.198;20.908;2022-10-26T15:07:59;100881.00;;;16.70
45850;BMP180;10739;52.198;20.908;2022-10-26T15:13:29;100895.00;;;16.80
45850;BMP180;10739;52.198;20.908;2022-10-26T15:16:19;100889.00;;;16.90
45850;BMP180;10739;52.198;20.908;2022-10-26T15:19:10;100892.00;;;16.90
45850;BMP180;10739;52.198;20.908;2022-10-26T15:21:46;100899.00;;;16.60
45850;BMP180;10739;52.198;20.908;2022-10-26T15:26:46;100900.00;;;16.50
45850;BMP180;10739;52.198;20.908;2022-10-26T15:29:44;100900.00;;;16.50
45850;BMP180;10739;52.198;20.908;2022-10-26T15:35:11;100901.00;;;16.40
45850;BMP180;10739;52.198;20.908;2022-10-26T15:37:38;100901.00;;;16.00
45850;BMP180;10739;52.198;20.908;2022-10-26T15:40:06;100909.00;;;16.10
45850;BMP180;10739;52.198;20.908;2022-10-26T15:42:36;100901.00;;;15.90
45850;BMP180;10739;52.198;20.908;2022-10-26T15:45:20;100906.00;;;15.70
45850;BMP180;10739;52.198;20.908;2022-10-26T15:47:49;100912.00;;;15.80
45850;BMP180;10739;52.198;20.908;2022-10-26T15:50:21;100918.00;;;15.90
45850;BMP180;10739;52.198;20.908;2022-10-26T15:52:48;100917.00;;;15.70
45850;BMP180;10739;52.198;20.908;2022-10-26T15:55:16;100916.00;;;15.80
45850;BMP180;10739;52.198;20.908;2022-10-26T15:57:42;100928.00;;;15.90
45850;BMP180;10739;52.198;20.908;2022-10-26T16:00:15;100919.00;;;16.00
45850;BMP180;10739;52.198;20.908;2022-10-26T16:02:44;100932.00;;;15.80
45850;BMP180;10739;52.198;20.908;2022-10-26T16:05:12;100928.00;;;15.70
45850;BMP180;10739;52.198;20.908;2022-10-26T16:07:43;100927.00;;;15.70
45850;BMP180;10739;52.198;20.908;2022-10-26T16:10:27;100928.00;;;15.60
45850;BMP180;10739;52.198;20.908;2022-10-26T16:12:54;100926.00;;;15.60
45850;BMP180;10739;52.198;20.908;2022-10-26T16:15:23;100935.00;;;15.50
45850;BMP180;10739;52.198;20.908;2022-10-26T16:17:50;100933.00;;;15.40